CYRQ

Trois-Rivieres Airport

Trois-Rivieres, , Canada
METAR CYRQ 251857Z AUTO 17008KT 6SM -RA BR BKN008 OVC014 11/11 A3024 RMK SLP243
Observed Flight Rules
Sep-25 @ 18:57 UTC (5 minutes ago) Instrument Flight Rules
Wind Visibility Clouds Conditions
170° at 8 knots 6 miles
  • Broken at 800' AGL
  • Overcast at 1,400' AGL
  • Light Rain
  • Mist
Temperatures Readings
Current 11°C / 52°F
Dewpoint 11°C / 52°F
Humidity 100%
Altimeter 30.24" Hg
Pressure 1024.3 hPa
Elevation 61
METAR CYRQ 251857Z AUTO 17008KT 6SM -RA BR BKN008 OVC014 11/11 A3024 RMK SLP243
Observed Flight Rules
Sep-25 @ 18:57 UTC
(5 minutes ago)
IFR
Wind Visibility
170° at 8 knots 6 miles
Clouds
  • Broken at 800' AGL
  • Overcast at 1,400' AGL
Conditions
  • Light Rain
  • Mist
Temperature Dewpoint
11°C / 52°F 11°C / 52°F
Humidity Altimeter Pressure
100% 30.24" Hg 1024.3 hPa